createdAt,value
2023-03-01T00:03:39.981Z,99.73
2023-03-01T00:07:42.879Z,99.12
2023-03-01T00:11:44.781Z,100.00
2023-03-01T00:15:46.219Z,100.00
2023-03-01T00:19:47.702Z,99.63
2023-03-01T00:23:50.692Z,99.26
2023-03-01T00:27:52.401Z,99.39
2023-03-01T00:31:53.873Z,97.36
2023-03-01T00:35:55.481Z,97.46
2023-03-01T00:39:58.256Z,100.00
2023-03-01T00:43:59.705Z,99.16
2023-03-01T00:48:01.167Z,98.96
2023-03-01T00:52:02.672Z,99.65
2023-03-01T00:56:07.493Z,99.36
2023-03-01T01:00:10.217Z,99.98
2023-03-01T01:04:13.885Z,99.67
2023-03-01T01:08:15.345Z,100.00
2023-03-01T01:12:18.187Z,100.00
2023-03-01T01:16:21.335Z,99.58
2023-03-01T01:20:22.806Z,98.90
2023-03-01T01:24:24.406Z,99.17
2023-03-01T01:28:27.206Z,99.05
2023-03-01T01:32:29.555Z,100.00
2023-03-01T01:36:31.490Z,100.00
2023-03-01T01:40:33.161Z,100.00
2023-03-01T01:44:36.280Z,100.00
2023-03-01T01:48:42.612Z,100.00
2023-03-01T01:52:44.176Z,100.00
2023-03-01T01:56:49.891Z,100.00
2023-03-01T02:00:53.625Z,100.00
2023-03-01T02:05:07.342Z,100.00
2023-03-01T02:09:13.752Z,99.44
2023-03-01T02:13:15.569Z,100.00
2023-03-01T02:17:19.789Z,100.00
2023-03-01T02:21:43.596Z,100.00
2023-03-01T02:25:51.416Z,100.00
2023-03-01T02:29:55.702Z,100.00
2023-03-01T02:33:58.782Z,99.76
2023-03-01T02:38:01.936Z,100.00
2023-03-01T02:42:04.858Z,100.00
2023-03-01T02:46:09.846Z,100.00
2023-03-01T02:50:22.595Z,100.00
2023-03-01T02:54:25.762Z,98.71
2023-03-01T02:58:27.375Z,96.39
2023-03-01T03:02:31.281Z,97.80
2023-03-01T03:06:33.138Z,98.86
2023-03-01T03:10:37.630Z,97.94
2023-03-01T03:14:39.081Z,98.16
2023-03-01T03:18:41.874Z,99.88
2023-03-01T03:22:43.347Z,100.00
2023-03-01T03:26:44.782Z,99.99
2023-03-01T03:30:46.310Z,100.00
2023-03-01T03:34:49.212Z,99.31
2023-03-01T03:38:50.846Z,99.87
2023-03-01T03:42:52.281Z,99.91
2023-03-01T03:46:53.699Z,100.00
2023-03-01T03:50:57.282Z,100.00
2023-03-01T03:54:58.754Z,100.00
2023-03-01T03:59:00.173Z,100.00
2023-03-01T04:03:01.640Z,99.90
2023-03-01T04:07:04.514Z,98.79
2023-03-01T04:11:07.050Z,97.99
2023-03-01T04:15:08.858Z,98.30
2023-03-01T04:19:10.287Z,96.88
2023-03-01T04:23:14.622Z,96.75
2023-03-01T04:27:16.056Z,96.82
2023-03-01T04:31:19.920Z,97.07
2023-03-01T04:35:21.361Z,98.65
2023-03-01T04:39:24.123Z,98.53
2023-03-01T04:43:25.543Z,97.64
2023-03-01T04:47:26.999Z,97.47
2023-03-01T04:51:28.529Z,97.23
2023-03-01T04:55:31.458Z,98.49
2023-03-01T04:59:33.096Z,99.39
2023-03-01T05:03:34.509Z,100.00
2023-03-01T05:07:35.947Z,98.56
2023-03-01T05:11:38.806Z,97.94
2023-03-01T05:15:40.560Z,98.98
2023-03-01T05:19:42.037Z,98.92
2023-03-01T05:23:43.532Z,99.84
2023-03-01T05:27:46.306Z,99.78
2023-03-01T05:31:47.769Z,97.81
2023-03-01T05:35:50.840Z,98.13
2023-03-01T05:39:52.355Z,98.65
2023-03-01T05:43:55.114Z,99.57
2023-03-01T05:47:56.550Z,100.00
2023-03-01T05:51:57.979Z,98.34
2023-03-01T05:55:59.417Z,98.08
2023-03-01T06:00:02.298Z,96.24
2023-03-01T06:04:04.739Z,94.83
2023-03-01T06:08:06.804Z,94.26
2023-03-01T06:12:08.392Z,96.30
2023-03-01T06:16:12.087Z,94.87
2023-03-01T06:20:15.805Z,94.97
2023-03-01T06:24:17.255Z,95.22
2023-03-01T06:28:18.801Z,96.13
2023-03-01T06:32:21.638Z,95.46
2023-03-01T06:36:23.105Z,95.99
2023-03-01T06:40:24.602Z,97.60
2023-03-01T06:44:26.269Z,96.40
2023-03-01T06:48:29.047Z,96.14
2023-03-01T06:52:31.746Z,97.12
2023-03-01T06:56:34.074Z,98.63
2023-03-01T07:00:35.679Z,97.78
2023-03-01T07:04:38.571Z,97.79
2023-03-01T07:08:40.262Z,97.94
2023-03-01T07:12:41.757Z,97.44
2023-03-01T07:16:43.278Z,98.15
2023-03-01T07:20:46.083Z,98.25
2023-03-01T07:24:47.554Z,99.82
2023-03-01T07:28:49.075Z,99.44
2023-03-01T07:32:50.647Z,98.87
2023-03-01T07:36:53.554Z,96.26
2023-03-01T07:40:58.557Z,94.56
2023-03-01T07:44:59.994Z,95.63
2023-03-01T07:49:01.468Z,95.29
2023-03-01T07:53:04.318Z,93.36
2023-03-01T07:57:05.758Z,93.70
2023-03-01T08:01:09.356Z,93.98
2023-03-01T08:05:11.284Z,92.75
2023-03-01T08:09:14.108Z,89.16
2023-03-01T08:13:15.552Z,88.89
2023-03-01T08:17:17.157Z,89.83
2023-03-01T08:21:19.683Z,88.83
2023-03-01T08:25:22.468Z,90.45
2023-03-01T08:29:24.299Z,89.13
2023-03-01T08:33:25.766Z,88.20
2023-03-01T08:37:27.317Z,88.24
2023-03-01T08:41:30.401Z,87.39
2023-03-01T08:45:31.920Z,86.40
2023-03-01T08:49:33.604Z,87.73
2023-03-01T08:53:35.141Z,86.69
2023-03-01T08:57:37.895Z,85.95
2023-03-01T09:01:39.881Z,84.15
2023-03-01T09:05:41.309Z,83.95
2023-03-01T09:09:42.811Z,84.05
2023-03-01T09:13:46.847Z,83.40
2023-03-01T09:17:48.340Z,82.08
2023-03-01T09:21:49.826Z,81.61
2023-03-01T09:25:51.243Z,82.51
2023-03-01T09:29:54.022Z,81.11
2023-03-01T09:33:55.906Z,79.57
2023-03-01T09:37:57.336Z,77.63
2023-03-01T09:42:03.801Z,78.10
2023-03-01T09:46:09.070Z,78.18
2023-03-01T09:50:13.968Z,76.40
2023-03-01T09:54:15.542Z,73.32
2023-03-01T09:58:35.287Z,73.60
2023-03-01T10:02:44.582Z,73.54
2023-03-01T10:06:56.862Z,69.83
2023-03-01T10:10:58.476Z,71.24
2023-03-01T10:15:06.328Z,70.16
2023-03-01T10:19:13.420Z,71.47
2023-03-01T10:23:15.044Z,69.16
2023-03-01T10:27:21.819Z,70.63
2023-03-01T10:31:26.759Z,69.66
2023-03-01T10:35:33.602Z,68.68
2023-03-01T10:39:35.763Z,67.01
2023-03-01T10:43:45.199Z,65.96
2023-03-01T10:47:46.668Z,67.06
2023-03-01T10:51:52.252Z,67.25
2023-03-01T10:55:59.854Z,66.70
2023-03-01T11:00:15.733Z,66.02
2023-03-01T11:04:17.217Z,64.57
2023-03-01T11:08:33.783Z,67.99
2023-03-01T11:12:36.378Z,66.36
2023-03-01T11:16:39.667Z,64.23
2023-03-01T11:20:42.259Z,65.53
2023-03-01T11:24:57.257Z,64.75
2023-03-01T11:29:07.140Z,63.23
2023-03-01T11:33:19.959Z,62.11
2023-03-01T11:37:29.784Z,61.47
2023-03-01T11:41:35.297Z,57.33
2023-03-01T11:45:48.446Z,58.28
2023-03-01T11:50:16.979Z,57.78
2023-03-01T11:54:29.440Z,54.88
2023-03-01T11:58:40.331Z,53.76
2023-03-01T12:03:02.304Z,56.19
2023-03-01T12:07:11.645Z,56.45
2023-03-01T12:11:26.936Z,56.29
2023-03-01T12:15:45.871Z,56.87
2023-03-01T12:20:10.361Z,57.52
2023-03-01T12:24:37.470Z,60.23
2023-03-01T12:29:01.137Z,58.58
2023-03-01T12:33:18.496Z,57.59
2023-03-01T12:37:30.390Z,57.38
2023-03-01T12:41:44.350Z,57.81
2023-03-01T12:45:57.402Z,55.90
2023-03-01T12:50:05.679Z,59.18
2023-03-01T12:54:15.999Z,56.16
2023-03-01T12:58:25.050Z,58.83
2023-03-01T13:02:33.306Z,55.90
2023-03-01T13:06:46.103Z,55.40
2023-03-01T13:10:51.221Z,57.43
2023-03-01T13:14:55.163Z,52.89
2023-03-01T13:19:09.627Z,51.37
2023-03-01T13:23:24.468Z,50.95
2023-03-01T13:27:25.946Z,52.48
2023-03-01T13:32:01.005Z,49.99
2023-03-01T13:36:02.723Z,48.89
2023-03-01T13:40:45.587Z,50.83
2023-03-01T13:44:48.465Z,50.24
2023-03-01T13:48:53.228Z,50.24
2023-03-01T13:52:58.603Z,51.37
2023-03-01T13:57:02.588Z,51.49
2023-03-01T14:01:08.307Z,52.72
2023-03-01T14:05:10.482Z,53.38
2023-03-01T14:09:23.665Z,53.73
2023-03-01T14:13:39.888Z,52.37
2023-03-01T14:18:03.372Z,56.84
2023-03-01T14:22:17.525Z,55.08
2023-03-01T14:26:22.117Z,54.91
2023-03-01T14:30:26.572Z,54.87
2023-03-01T14:34:29.369Z,55.79
2023-03-01T14:38:34.877Z,56.99
2023-03-01T14:42:37.531Z,58.51
2023-03-01T14:46:41.813Z,57.21
2023-03-01T14:50:45.956Z,58.50
2023-03-01T14:54:50.093Z,58.51
2023-03-01T14:59:00.142Z,58.65
2023-03-01T15:03:06.260Z,59.76
2023-03-01T15:07:13.726Z,59.79
2023-03-01T15:11:22.119Z,58.29
2023-03-01T15:15:37.138Z,60.50
2023-03-01T15:19:38.900Z,59.93
2023-03-01T15:23:41.838Z,58.65
2023-03-01T15:27:46.941Z,61.85
2023-03-01T15:31:56.288Z,61.98
2023-03-01T15:35:59.505Z,61.45
2023-03-01T15:40:02.410Z,61.46
2023-03-01T15:44:16.459Z,62.18
2023-03-01T15:48:20.387Z,61.43
2023-03-01T15:52:25.958Z,62.47
2023-03-01T15:56:28.973Z,63.07
2023-03-01T16:00:30.866Z,63.75
2023-03-01T16:04:32.390Z,64.61
2023-03-01T16:08:33.956Z,63.99
2023-03-01T16:12:36.718Z,64.80
2023-03-01T16:16:38.245Z,65.51
2023-03-01T16:20:40.673Z,65.93
2023-03-01T16:24:42.122Z,67.19
2023-03-01T16:28:46.108Z,68.84
2023-03-01T16:32:49.545Z,68.36
2023-03-01T16:36:51.095Z,69.21
2023-03-01T16:40:52.850Z,71.95
2023-03-01T16:44:56.974Z,68.31
2023-03-01T16:48:58.440Z,70.17
2023-03-01T16:52:59.877Z,70.03
2023-03-01T16:57:01.341Z,72.52
2023-03-01T17:01:10.195Z,70.08
2023-03-01T17:05:11.771Z,69.89
2023-03-01T17:09:13.908Z,70.83
2023-03-01T17:13:15.797Z,69.71
2023-03-01T17:17:18.640Z,73.71
2023-03-01T17:21:20.160Z,72.20
2023-03-01T17:25:21.597Z,71.60
2023-03-01T17:29:23.073Z,72.86
2023-03-01T17:33:25.938Z,72.76
2023-03-01T17:37:27.375Z,74.66
2023-03-01T17:41:29.045Z,74.00
2023-03-01T17:45:30.757Z,74.41
2023-03-01T17:49:33.620Z,76.21
2023-03-01T17:53:35.818Z,74.51
2023-03-01T17:57:39.609Z,74.86
2023-03-01T18:01:42.151Z,74.98
2023-03-01T18:05:45.024Z,76.00
2023-03-01T18:09:46.460Z,76.79
2023-03-01T18:13:48.398Z,78.52
2023-03-01T18:17:49.856Z,78.46
2023-03-01T18:21:52.624Z,79.22
2023-03-01T18:25:58.577Z,80.52
2023-03-01T18:30:00.005Z,81.38
2023-03-01T18:34:01.504Z,82.81
2023-03-01T18:38:04.575Z,81.13
2023-03-01T18:42:06.138Z,81.40
2023-03-01T18:46:07.732Z,80.80
2023-03-01T18:50:10.231Z,80.68
2023-03-01T18:54:13.170Z,77.33
2023-03-01T18:58:14.631Z,76.24
2023-03-01T19:02:16.201Z,77.81
2023-03-01T19:06:19.040Z,76.80
2023-03-01T19:10:21.872Z,77.48
2023-03-01T19:14:23.454Z,75.45
2023-03-01T19:18:25.010Z,75.75
2023-03-01T19:22:27.323Z,76.27
2023-03-01T19:26:31.684Z,77.75
2023-03-01T19:30:33.370Z,79.72
2023-03-01T19:34:34.963Z,79.68
2023-03-01T19:38:37.544Z,79.37
2023-03-01T19:42:40.363Z,81.20
2023-03-01T19:46:42.016Z,80.30
2023-03-01T19:50:43.899Z,79.38
2023-03-01T19:54:45.421Z,79.52
2023-03-01T19:58:48.616Z,80.64
2023-03-01T20:02:50.154Z,81.07
2023-03-01T20:06:51.657Z,81.15
2023-03-01T20:10:53.111Z,81.80
2023-03-01T20:14:56.063Z,82.46
2023-03-01T20:18:59.834Z,83.21
2023-03-01T20:23:01.378Z,82.51
2023-03-01T20:27:02.889Z,80.80
2023-03-01T20:31:07.868Z,79.72
2023-03-01T20:35:10.455Z,80.70
2023-03-01T20:39:11.912Z,80.38
2023-03-01T20:43:13.327Z,79.99
2023-03-01T20:47:16.154Z,81.32
2023-03-01T20:51:18.063Z,82.85
2023-03-01T20:55:19.520Z,80.02
2023-03-01T20:59:21.146Z,78.90
2023-03-01T21:03:24.081Z,78.03
2023-03-01T21:07:25.542Z,79.29
2023-03-01T21:11:27.103Z,80.67
2023-03-01T21:15:29.721Z,80.21
2023-03-01T21:19:36.232Z,80.16
2023-03-01T21:23:39.462Z,79.73
2023-03-01T21:27:40.915Z,80.33
2023-03-01T21:31:42.411Z,78.56
2023-03-01T21:35:45.248Z,79.08
2023-03-01T21:39:46.708Z,79.62
2023-03-01T21:43:49.673Z,81.63
2023-03-01T21:47:51.120Z,83.08
2023-03-01T21:51:53.942Z,80.92
2023-03-01T21:55:55.432Z,82.15
2023-03-01T21:59:56.872Z,82.72
2023-03-01T22:04:00.139Z,83.05
2023-03-01T22:08:02.953Z,80.60
2023-03-01T22:12:04.885Z,80.03
2023-03-01T22:16:06.836Z,79.83
2023-03-01T22:20:09.839Z,78.64
2023-03-01T22:24:13.015Z,78.02
2023-03-01T22:28:14.520Z,80.43
2023-03-01T22:32:16.150Z,81.12
2023-03-01T22:36:17.896Z,79.68
2023-03-01T22:40:20.804Z,79.86
2023-03-01T22:44:23.933Z,82.41
2023-03-01T22:48:26.263Z,82.59
2023-03-01T22:52:27.697Z,83.36
2023-03-01T22:56:33.003Z,82.48
2023-03-01T23:00:34.648Z,83.27
2023-03-01T23:04:36.153Z,84.94
2023-03-01T23:08:37.763Z,83.34
2023-03-01T23:12:41.260Z,81.48
2023-03-01T23:16:42.891Z,81.69
2023-03-01T23:20:44.340Z,83.00
2023-03-01T23:24:45.995Z,84.05
2023-03-01T23:28:48.970Z,84.44
2023-03-01T23:32:50.393Z,84.40
2023-03-01T23:36:52.843Z,84.97
2023-03-01T23:40:54.283Z,83.90
2023-03-01T23:44:57.114Z,85.36
2023-03-01T23:48:59.000Z,83.18
2023-03-01T23:53:00.407Z,83.56
2023-03-01T23:57:01.879Z,84.00
